sensor_id;sensor_type;location;lat;lon;timestamp;P1;durP1;ratioP1;P2;durP2;ratioP2
4089;SDS011;2059;48.538;12.146;2022-09-23T00:04:38;11.00;;;10.00;;
4089;SDS011;2059;48.538;12.146;2022-09-23T00:09:40;10.83;;;9.83;;
4089;SDS011;2059;48.538;12.146;2022-09-23T00:14:43;10.20;;;9.40;;
4089;SDS011;2059;48.538;12.146;2022-09-23T00:19:45;9.80;;;9.00;;
4089;SDS011;2059;48.538;12.146;2022-09-23T00:24:47;10.53;;;9.37;;
4089;SDS011;2059;48.538;12.146;2022-09-23T00:29:51;10.63;;;9.70;;
4089;SDS011;2059;48.538;12.146;2022-09-23T00:34:52;10.03;;;9.13;;
4089;SDS011;2059;48.538;12.146;2022-09-23T00:39:54;10.07;;;9.27;;
4089;SDS011;2059;48.538;12.146;2022-09-23T00:44:58;10.27;;;9.43;;
4089;SDS011;2059;48.538;12.146;2022-09-23T00:50:02;10.97;;;10.07;;
4089;SDS011;2059;48.538;12.146;2022-09-23T00:55:10;11.23;;;10.33;;
4089;SDS011;2059;48.538;12.146;2022-09-23T01:00:17;8.57;;;7.70;;
4089;SDS011;2059;48.538;12.146;2022-09-23T01:05:19;8.43;;;7.63;;
4089;SDS011;2059;48.538;12.146;2022-09-23T01:10:21;9.23;;;8.37;;
4089;SDS011;2059;48.538;12.146;2022-09-23T01:15:27;9.00;;;8.20;;
4089;SDS011;2059;48.538;12.146;2022-09-23T01:20:48;8.07;;;7.27;;
4089;SDS011;2059;48.538;12.146;2022-09-23T01:26:01;8.60;;;7.90;;
4089;SDS011;2059;48.538;12.146;2022-09-23T01:31:15;8.33;;;7.53;;
4089;SDS011;2059;48.538;12.146;2022-09-23T01:36:24;8.60;;;7.70;;
4089;SDS011;2059;48.538;12.146;2022-09-23T01:41:41;8.13;;;7.33;;
4089;SDS011;2059;48.538;12.146;2022-09-23T01:46:52;8.47;;;7.70;;
4089;SDS011;2059;48.538;12.146;2022-09-23T01:51:57;8.67;;;7.97;;
4089;SDS011;2059;48.538;12.146;2022-09-23T01:57:05;10.10;;;7.40;;
4089;SDS011;2059;48.538;12.146;2022-09-23T02:02:14;7.33;;;6.80;;
4089;SDS011;2059;48.538;12.146;2022-09-23T02:07:19;9.87;;;8.40;;
4089;SDS011;2059;48.538;12.146;2022-09-23T02:12:25;8.90;;;7.50;;
4089;SDS011;2059;48.538;12.146;2022-09-23T02:17:37;8.77;;;7.97;;
4089;SDS011;2059;48.538;12.146;2022-09-23T02:22:44;7.83;;;7.13;;
4089;SDS011;2059;48.538;12.146;2022-09-23T02:27:53;8.47;;;7.77;;
4089;SDS011;2059;48.538;12.146;2022-09-23T02:32:59;8.10;;;7.40;;
4089;SDS011;2059;48.538;12.146;2022-09-23T02:38:07;8.50;;;7.80;;
4089;SDS011;2059;48.538;12.146;2022-09-23T02:43:21;8.57;;;7.77;;
4089;SDS011;2059;48.538;12.146;2022-09-23T02:48:32;7.97;;;7.37;;
4089;SDS011;2059;48.538;12.146;2022-09-23T02:53:36;8.20;;;7.50;;
4089;SDS011;2059;48.538;12.146;2022-09-23T02:58:38;9.37;;;8.27;;
4089;SDS011;2059;48.538;12.146;2022-09-23T03:03:42;10.23;;;8.93;;
4089;SDS011;2059;48.538;12.146;2022-09-23T03:08:48;8.43;;;7.73;;
4089;SDS011;2059;48.538;12.146;2022-09-23T03:14:00;9.13;;;8.30;;
4089;SDS011;2059;48.538;12.146;2022-09-23T03:19:21;9.87;;;9.07;;
4089;SDS011;2059;48.538;12.146;2022-09-23T03:24:25;10.90;;;9.90;;
4089;SDS011;2059;48.538;12.146;2022-09-23T03:29:30;11.50;;;10.40;;
4089;SDS011;2059;48.538;12.146;2022-09-23T03:34:37;11.73;;;10.53;;
4089;SDS011;2059;48.538;12.146;2022-09-23T03:39:42;12.43;;;10.97;;
4089;SDS011;2059;48.538;12.146;2022-09-23T03:44:52;12.53;;;11.23;;
4089;SDS011;2059;48.538;12.146;2022-09-23T03:49:56;12.83;;;11.47;;
4089;SDS011;2059;48.538;12.146;2022-09-23T03:54:58;13.63;;;11.63;;
4089;SDS011;2059;48.538;12.146;2022-09-23T04:00:00;16.47;;;13.50;;
4089;SDS011;2059;48.538;12.146;2022-09-23T04:05:05;22.70;;;14.60;;
4089;SDS011;2059;48.538;12.146;2022-09-23T04:10:08;15.20;;;13.60;;
4089;SDS011;2059;48.538;12.146;2022-09-23T04:15:10;21.20;;;15.40;;
4089;SDS011;2059;48.538;12.146;2022-09-23T04:20:13;23.43;;;17.30;;
4089;SDS011;2059;48.538;12.146;2022-09-23T04:25:16;22.47;;;17.87;;
4089;SDS011;2059;48.538;12.146;2022-09-23T04:30:18;15.70;;;13.00;;
4089;SDS011;2059;48.538;12.146;2022-09-23T04:35:21;17.33;;;12.60;;
4089;SDS011;2059;48.538;12.146;2022-09-23T04:40:23;19.63;;;12.47;;
4089;SDS011;2059;48.538;12.146;2022-09-23T04:45:25;16.53;;;12.50;;
4089;SDS011;2059;48.538;12.146;2022-09-23T04:50:28;25.63;;;15.30;;
4089;SDS011;2059;48.538;12.146;2022-09-23T04:55:31;21.50;;;15.67;;
4089;SDS011;2059;48.538;12.146;2022-09-23T05:00:33;25.37;;;17.97;;
4089;SDS011;2059;48.538;12.146;2022-09-23T05:05:36;23.73;;;16.27;;
4089;SDS011;2059;48.538;12.146;2022-09-23T05:10:38;22.83;;;15.40;;
4089;SDS011;2059;48.538;12.146;2022-09-23T05:15:39;16.70;;;13.60;;
4089;SDS011;2059;48.538;12.146;2022-09-23T05:20:43;13.30;;;11.90;;
4089;SDS011;2059;48.538;12.146;2022-09-23T05:25:44;16.13;;;11.70;;
4089;SDS011;2059;48.538;12.146;2022-09-23T05:30:47;17.10;;;12.70;;
4089;SDS011;2059;48.538;12.146;2022-09-23T05:35:50;21.53;;;15.27;;
4089;SDS011;2059;48.538;12.146;2022-09-23T05:40:55;17.10;;;13.63;;
4089;SDS011;2059;48.538;12.146;2022-09-23T05:46:00;16.43;;;12.83;;
4089;SDS011;2059;48.538;12.146;2022-09-23T05:51:04;13.47;;;11.87;;
4089;SDS011;2059;48.538;12.146;2022-09-23T05:56:08;12.50;;;11.20;;
4089;SDS011;2059;48.538;12.146;2022-09-23T06:01:10;11.63;;;10.43;;
4089;SDS011;2059;48.538;12.146;2022-09-23T06:06:14;15.50;;;11.10;;
4089;SDS011;2059;48.538;12.146;2022-09-23T06:11:18;14.40;;;11.43;;
4089;SDS011;2059;48.538;12.146;2022-09-23T06:16:20;12.47;;;10.60;;
4089;SDS011;2059;48.538;12.146;2022-09-23T06:21:23;20.37;;;13.10;;
4089;SDS011;2059;48.538;12.146;2022-09-23T06:26:25;15.50;;;12.80;;
4089;SDS011;2059;48.538;12.146;2022-09-23T06:31:32;26.10;;;11.30;;
4089;SDS011;2059;48.538;12.146;2022-09-23T06:36:36;23.83;;;11.20;;
4089;SDS011;2059;48.538;12.146;2022-09-23T06:41:38;16.70;;;11.50;;
4089;SDS011;2059;48.538;12.146;2022-09-23T06:46:40;13.00;;;11.80;;
4089;SDS011;2059;48.538;12.146;2022-09-23T06:51:43;12.80;;;11.37;;
4089;SDS011;2059;48.538;12.146;2022-09-23T06:56:44;19.93;;;12.63;;
4089;SDS011;2059;48.538;12.146;2022-09-23T07:01:47;15.63;;;12.60;;
4089;SDS011;2059;48.538;12.146;2022-09-23T07:06:51;15.70;;;14.20;;
4089;SDS011;2059;48.538;12.146;2022-09-23T07:11:53;15.73;;;14.20;;
4089;SDS011;2059;48.538;12.146;2022-09-23T07:16:55;18.17;;;15.70;;
4089;SDS011;2059;48.538;12.146;2022-09-23T07:22:00;20.20;;;16.50;;
4089;SDS011;2059;48.538;12.146;2022-09-23T07:27:02;18.93;;;15.10;;
4089;SDS011;2059;48.538;12.146;2022-09-23T07:32:04;16.80;;;14.53;;
4089;SDS011;2059;48.538;12.146;2022-09-23T07:37:07;16.87;;;15.17;;
4089;SDS011;2059;48.538;12.146;2022-09-23T07:42:10;17.53;;;14.40;;
4089;SDS011;2059;48.538;12.146;2022-09-23T07:47:13;13.43;;;12.10;;
4089;SDS011;2059;48.538;12.146;2022-09-23T07:52:18;14.27;;;12.83;;
4089;SDS011;2059;48.538;12.146;2022-09-23T07:57:19;12.77;;;11.57;;
4089;SDS011;2059;48.538;12.146;2022-09-23T08:02:21;12.30;;;11.20;;
4089;SDS011;2059;48.538;12.146;2022-09-23T08:07:25;18.20;;;10.37;;
4089;SDS011;2059;48.538;12.146;2022-09-23T08:12:27;10.37;;;9.07;;
4089;SDS011;2059;48.538;12.146;2022-09-23T08:17:30;12.20;;;10.90;;
4089;SDS011;2059;48.538;12.146;2022-09-23T08:22:33;10.37;;;9.30;;
4089;SDS011;2059;48.538;12.146;2022-09-23T08:27:35;10.37;;;9.33;;
4089;SDS011;2059;48.538;12.146;2022-09-23T08:32:37;15.00;;;10.03;;
4089;SDS011;2059;48.538;12.146;2022-09-23T08:37:40;9.47;;;8.70;;
4089;SDS011;2059;48.538;12.146;2022-09-23T08:42:42;8.27;;;7.67;;
4089;SDS011;2059;48.538;12.146;2022-09-23T08:47:46;8.90;;;8.20;;
4089;SDS011;2059;48.538;12.146;2022-09-23T08:52:55;8.27;;;7.77;;
4089;SDS011;2059;48.538;12.146;2022-09-23T08:58:02;8.20;;;7.60;;
4089;SDS011;2059;48.538;12.146;2022-09-23T09:03:16;7.90;;;7.40;;
4089;SDS011;2059;48.538;12.146;2022-09-23T09:08:23;8.20;;;7.70;;
4089;SDS011;2059;48.538;12.146;2022-09-23T09:13:29;6.30;;;5.80;;
4089;SDS011;2059;48.538;12.146;2022-09-23T09:18:32;7.50;;;6.60;;
4089;SDS011;2059;48.538;12.146;2022-09-23T09:23:42;8.27;;;7.67;;
4089;SDS011;2059;48.538;12.146;2022-09-23T09:28:51;6.50;;;6.00;;
4089;SDS011;2059;48.538;12.146;2022-09-23T09:33:58;5.77;;;5.37;;
4089;SDS011;2059;48.538;12.146;2022-09-23T09:39:06;6.80;;;6.10;;
4089;SDS011;2059;48.538;12.146;2022-09-23T09:44:16;5.77;;;5.27;;
4089;SDS011;2059;48.538;12.146;2022-09-23T09:49:25;6.00;;;5.50;;
4089;SDS011;2059;48.538;12.146;2022-09-23T09:54:35;8.10;;;6.47;;
4089;SDS011;2059;48.538;12.146;2022-09-23T09:59:37;5.20;;;4.90;;
4089;SDS011;2059;48.538;12.146;2022-09-23T10:04:43;9.67;;;7.10;;
4089;SDS011;2059;48.538;12.146;2022-09-23T10:09:48;7.40;;;6.80;;
4089;SDS011;2059;48.538;12.146;2022-09-23T10:14:54;7.33;;;6.80;;
4089;SDS011;2059;48.538;12.146;2022-09-23T10:19:58;8.80;;;7.17;;
4089;SDS011;2059;48.538;12.146;2022-09-23T10:25:08;8.30;;;7.70;;
4089;SDS011;2059;48.538;12.146;2022-09-23T10:30:20;7.93;;;7.43;;
4089;SDS011;2059;48.538;12.146;2022-09-23T10:35:24;5.80;;;5.30;;
4089;SDS011;2059;48.538;12.146;2022-09-23T10:40:31;5.23;;;4.83;;
4089;SDS011;2059;48.538;12.146;2022-09-23T10:45:53;7.33;;;6.80;;
4089;SDS011;2059;48.538;12.146;2022-09-23T10:51:20;5.50;;;5.20;;
4089;SDS011;2059;48.538;12.146;2022-09-23T10:56:30;7.63;;;6.80;;
4089;SDS011;2059;48.538;12.146;2022-09-23T11:01:37;5.80;;;5.30;;
4089;SDS011;2059;48.538;12.146;2022-09-23T11:06:46;5.10;;;4.80;;
4089;SDS011;2059;48.538;12.146;2022-09-23T11:12:05;8.50;;;7.80;;
4089;SDS011;2059;48.538;12.146;2022-09-23T11:17:22;6.23;;;5.63;;
4089;SDS011;2059;48.538;12.146;2022-09-23T11:22:43;6.17;;;5.77;;
4089;SDS011;2059;48.538;12.146;2022-09-23T11:28:12;5.77;;;5.33;;
4089;SDS011;2059;48.538;12.146;2022-09-23T11:33:31;8.20;;;7.60;;
4089;SDS011;2059;48.538;12.146;2022-09-23T11:38:40;8.63;;;8.13;;
4089;SDS011;2059;48.538;12.146;2022-09-23T11:43:48;7.90;;;7.40;;
4089;SDS011;2059;48.538;12.146;2022-09-23T11:48:55;8.37;;;7.77;;
4089;SDS011;2059;48.538;12.146;2022-09-23T11:54:03;8.43;;;7.90;;
4089;SDS011;2059;48.538;12.146;2022-09-23T11:59:14;9.10;;;8.20;;
4089;SDS011;2059;48.538;12.146;2022-09-23T12:04:27;9.60;;;7.40;;
4089;SDS011;2059;48.538;12.146;2022-09-23T12:09:35;8.40;;;7.80;;
4089;SDS011;2059;48.538;12.146;2022-09-23T12:14:46;8.33;;;7.73;;
4089;SDS011;2059;48.538;12.146;2022-09-23T12:20:09;8.40;;;7.80;;
4089;SDS011;2059;48.538;12.146;2022-09-23T12:25:32;8.83;;;8.23;;
4089;SDS011;2059;48.538;12.146;2022-09-23T12:30:40;7.80;;;7.30;;
4089;SDS011;2059;48.538;12.146;2022-09-23T12:35:44;7.90;;;7.40;;
4089;SDS011;2059;48.538;12.146;2022-09-23T12:40:46;8.00;;;7.50;;
4089;SDS011;2059;48.538;12.146;2022-09-23T12:45:52;7.40;;;7.00;;
4089;SDS011;2059;48.538;12.146;2022-09-23T12:50:55;7.00;;;6.60;;
4089;SDS011;2059;48.538;12.146;2022-09-23T12:56:13;7.57;;;6.97;;
4089;SDS011;2059;48.538;12.146;2022-09-23T13:01:19;7.57;;;7.07;;
4089;SDS011;2059;48.538;12.146;2022-09-23T13:06:22;7.23;;;6.83;;
4089;SDS011;2059;48.538;12.146;2022-09-23T13:11:38;7.80;;;7.20;;
4089;SDS011;2059;48.538;12.146;2022-09-23T13:16:45;7.33;;;6.90;;
4089;SDS011;2059;48.538;12.146;2022-09-23T13:21:59;7.83;;;7.23;;
4089;SDS011;2059;48.538;12.146;2022-09-23T13:32:33;7.43;;;7.03;;
4089;SDS011;2059;48.538;12.146;2022-09-23T13:37:41;8.10;;;7.40;;
4089;SDS011;2059;48.538;12.146;2022-09-23T13:42:45;7.27;;;6.77;;
4089;SDS011;2059;48.538;12.146;2022-09-23T13:47:52;6.93;;;6.50;;
4089;SDS011;2059;48.538;12.146;2022-09-23T13:52:59;7.20;;;6.70;;
4089;SDS011;2059;48.538;12.146;2022-09-23T13:58:12;6.77;;;6.37;;
4089;SDS011;2059;48.538;12.146;2022-09-23T14:03:28;7.07;;;6.67;;
4089;SDS011;2059;48.538;12.146;2022-09-23T14:08:31;7.70;;;7.20;;
4089;SDS011;2059;48.538;12.146;2022-09-23T14:13:40;7.80;;;7.17;;
4089;SDS011;2059;48.538;12.146;2022-09-23T14:18:45;7.00;;;6.60;;
4089;SDS011;2059;48.538;12.146;2022-09-23T14:23:48;7.50;;;7.00;;
4089;SDS011;2059;48.538;12.146;2022-09-23T14:28:50;6.53;;;5.33;;
4089;SDS011;2059;48.538;12.146;2022-09-23T14:33:54;5.70;;;5.30;;
4089;SDS011;2059;48.538;12.146;2022-09-23T14:38:59;7.73;;;7.23;;
4089;SDS011;2059;48.538;12.146;2022-09-23T14:44:02;6.80;;;6.40;;
4089;SDS011;2059;48.538;12.146;2022-09-23T14:49:13;4.93;;;4.47;;
4089;SDS011;2059;48.538;12.146;2022-09-23T14:59:46;4.33;;;4.03;;
4089;SDS011;2059;48.538;12.146;2022-09-23T15:05:01;4.50;;;4.20;;
4089;SDS011;2059;48.538;12.146;2022-09-23T15:10:11;4.60;;;4.30;;
4089;SDS011;2059;48.538;12.146;2022-09-23T15:15:18;4.47;;;4.17;;
4089;SDS011;2059;48.538;12.146;2022-09-23T15:20:28;4.60;;;4.40;;
4089;SDS011;2059;48.538;12.146;2022-09-23T15:25:31;6.57;;;4.77;;
4089;SDS011;2059;48.538;12.146;2022-09-23T15:30:34;4.53;;;4.10;;
4089;SDS011;2059;48.538;12.146;2022-09-23T15:35:38;18.70;;;5.53;;
4089;SDS011;2059;48.538;12.146;2022-09-23T15:40:44;9.13;;;4.60;;
4089;SDS011;2059;48.538;12.146;2022-09-23T15:45:48;4.53;;;4.27;;
4089;SDS011;2059;48.538;12.146;2022-09-23T15:50:53;6.23;;;4.53;;
4089;SDS011;2059;48.538;12.146;2022-09-23T15:55:55;4.40;;;4.10;;
4089;SDS011;2059;48.538;12.146;2022-09-23T16:00:57;5.00;;;4.47;;
4089;SDS011;2059;48.538;12.146;2022-09-23T16:06:01;4.50;;;4.20;;
4089;SDS011;2059;48.538;12.146;2022-09-23T16:11:05;4.40;;;4.10;;
4089;SDS011;2059;48.538;12.146;2022-09-23T16:16:10;4.63;;;4.30;;
4089;SDS011;2059;48.538;12.146;2022-09-23T16:21:13;5.93;;;4.60;;
4089;SDS011;2059;48.538;12.146;2022-09-23T16:26:18;4.30;;;4.00;;
4089;SDS011;2059;48.538;12.146;2022-09-23T16:31:23;5.10;;;4.70;;
4089;SDS011;2059;48.538;12.146;2022-09-23T16:36:30;4.83;;;4.43;;
4089;SDS011;2059;48.538;12.146;2022-09-23T16:41:33;7.90;;;5.07;;
4089;SDS011;2059;48.538;12.146;2022-09-23T16:46:35;4.90;;;4.60;;
4089;SDS011;2059;48.538;12.146;2022-09-23T16:51:38;5.63;;;5.20;;
4089;SDS011;2059;48.538;12.146;2022-09-23T16:56:41;5.57;;;5.17;;
4089;SDS011;2059;48.538;12.146;2022-09-23T17:01:44;5.30;;;4.90;;
4089;SDS011;2059;48.538;12.146;2022-09-23T17:07:05;7.03;;;5.33;;
4089;SDS011;2059;48.538;12.146;2022-09-23T17:12:08;5.40;;;5.00;;
4089;SDS011;2059;48.538;12.146;2022-09-23T17:17:15;5.40;;;4.90;;
4089;SDS011;2059;48.538;12.146;2022-09-23T17:22:22;7.17;;;6.27;;
4089;SDS011;2059;48.538;12.146;2022-09-23T17:27:24;9.80;;;6.80;;
4089;SDS011;2059;48.538;12.146;2022-09-23T17:32:26;7.10;;;6.40;;
4089;SDS011;2059;48.538;12.146;2022-09-23T17:37:29;8.90;;;6.90;;
4089;SDS011;2059;48.538;12.146;2022-09-23T17:42:32;9.73;;;8.07;;
4089;SDS011;2059;48.538;12.146;2022-09-23T17:47:34;14.43;;;8.10;;
4089;SDS011;2059;48.538;12.146;2022-09-23T17:52:38;10.10;;;7.67;;
4089;SDS011;2059;48.538;12.146;2022-09-23T17:57:40;15.43;;;10.97;;
4089;SDS011;2059;48.538;12.146;2022-09-23T18:02:42;12.30;;;11.10;;
4089;SDS011;2059;48.538;12.146;2022-09-23T18:07:45;14.23;;;12.73;;
4089;SDS011;2059;48.538;12.146;2022-09-23T18:12:47;16.30;;;12.00;;
4089;SDS011;2059;48.538;12.146;2022-09-23T18:17:49;16.23;;;11.43;;
4089;SDS011;2059;48.538;12.146;2022-09-23T18:22:52;16.43;;;11.97;;
4089;SDS011;2059;48.538;12.146;2022-09-23T18:27:54;14.00;;;11.50;;
4089;SDS011;2059;48.538;12.146;2022-09-23T18:32:56;19.93;;;14.40;;
4089;SDS011;2059;48.538;12.146;2022-09-23T18:37:59;26.03;;;15.57;;
4089;SDS011;2059;48.538;12.146;2022-09-23T18:43:01;18.33;;;14.27;;
4089;SDS011;2059;48.538;12.146;2022-09-23T18:48:04;15.20;;;12.43;;
4089;SDS011;2059;48.538;12.146;2022-09-23T18:53:24;13.57;;;11.40;;
4089;SDS011;2059;48.538;12.146;2022-09-23T18:58:26;15.70;;;12.33;;
4089;SDS011;2059;48.538;12.146;2022-09-23T19:03:28;14.37;;;11.57;;
4089;SDS011;2059;48.538;12.146;2022-09-23T19:08:31;15.10;;;12.70;;
4089;SDS011;2059;48.538;12.146;2022-09-23T19:13:34;16.30;;;13.20;;
4089;SDS011;2059;48.538;12.146;2022-09-23T19:18:36;17.77;;;13.50;;
4089;SDS011;2059;48.538;12.146;2022-09-23T19:23:45;14.20;;;12.70;;
4089;SDS011;2059;48.538;12.146;2022-09-23T19:28:48;15.53;;;12.83;;
4089;SDS011;2059;48.538;12.146;2022-09-23T19:33:51;15.70;;;12.83;;
4089;SDS011;2059;48.538;12.146;2022-09-23T19:38:59;17.13;;;11.77;;
4089;SDS011;2059;48.538;12.146;2022-09-23T19:44:05;12.60;;;11.30;;
4089;SDS011;2059;48.538;12.146;2022-09-23T19:49:07;12.00;;;10.70;;
4089;SDS011;2059;48.538;12.146;2022-09-23T19:54:12;12.13;;;10.70;;
4089;SDS011;2059;48.538;12.146;2022-09-23T19:59:18;15.53;;;10.40;;
4089;SDS011;2059;48.538;12.146;2022-09-23T20:04:20;13.20;;;10.43;;
4089;SDS011;2059;48.538;12.146;2022-09-23T20:09:23;17.57;;;13.17;;
4089;SDS011;2059;48.538;12.146;2022-09-23T20:14:28;20.80;;;13.53;;
4089;SDS011;2059;48.538;12.146;2022-09-23T20:19:30;16.33;;;12.50;;
4089;SDS011;2059;48.538;12.146;2022-09-23T20:24:33;14.43;;;11.17;;
4089;SDS011;2059;48.538;12.146;2022-09-23T20:29:35;12.80;;;10.70;;
4089;SDS011;2059;48.538;12.146;2022-09-23T20:34:38;11.00;;;9.57;;
4089;SDS011;2059;48.538;12.146;2022-09-23T20:39:44;12.00;;;10.70;;
4089;SDS011;2059;48.538;12.146;2022-09-23T20:44:47;11.13;;;10.10;;
4089;SDS011;2059;48.538;12.146;2022-09-23T20:49:49;11.20;;;9.97;;
4089;SDS011;2059;48.538;12.146;2022-09-23T20:54:54;11.83;;;10.67;;
4089;SDS011;2059;48.538;12.146;2022-09-23T20:59:55;11.77;;;10.60;;
4089;SDS011;2059;48.538;12.146;2022-09-23T21:04:58;11.03;;;9.93;;
4089;SDS011;2059;48.538;12.146;2022-09-23T21:10:01;10.80;;;9.70;;
4089;SDS011;2059;48.538;12.146;2022-09-23T21:15:06;10.60;;;9.60;;
4089;SDS011;2059;48.538;12.146;2022-09-23T21:20:08;10.47;;;9.43;;
4089;SDS011;2059;48.538;12.146;2022-09-23T21:25:12;10.57;;;9.47;;
4089;SDS011;2059;48.538;12.146;2022-09-23T21:30:14;12.50;;;9.50;;
4089;SDS011;2059;48.538;12.146;2022-09-23T21:35:16;13.10;;;9.60;;
4089;SDS011;2059;48.538;12.146;2022-09-23T21:40:19;11.53;;;10.37;;
4089;SDS011;2059;48.538;12.146;2022-09-23T21:45:39;13.23;;;10.63;;
4089;SDS011;2059;48.538;12.146;2022-09-23T21:50:40;11.33;;;10.13;;
4089;SDS011;2059;48.538;12.146;2022-09-23T21:55:44;11.07;;;9.90;;
4089;SDS011;2059;48.538;12.146;2022-09-23T22:00:47;12.40;;;10.03;;
4089;SDS011;2059;48.538;12.146;2022-09-23T22:05:58;10.93;;;9.30;;
4089;SDS011;2059;48.538;12.146;2022-09-23T22:11:04;10.37;;;8.97;;
4089;SDS011;2059;48.538;12.146;2022-09-23T22:16:07;11.53;;;10.37;;
4089;SDS011;2059;48.538;12.146;2022-09-23T22:21:09;11.00;;;8.97;;
4089;SDS011;2059;48.538;12.146;2022-09-23T22:26:12;10.23;;;9.30;;
4089;SDS011;2059;48.538;12.146;2022-09-23T22:31:14;10.47;;;9.40;;
4089;SDS011;2059;48.538;12.146;2022-09-23T22:36:34;11.33;;;9.37;;
4089;SDS011;2059;48.538;12.146;2022-09-23T22:41:37;11.20;;;9.97;;
4089;SDS011;2059;48.538;12.146;2022-09-23T22:46:40;13.50;;;10.27;;
4089;SDS011;2059;48.538;12.146;2022-09-23T22:51:41;12.53;;;10.33;;
4089;SDS011;2059;48.538;12.146;2022-09-23T22:56:44;13.00;;;11.63;;
4089;SDS011;2059;48.538;12.146;2022-09-23T23:01:46;14.40;;;11.97;;
4089;SDS011;2059;48.538;12.146;2022-09-23T23:06:50;15.73;;;12.03;;
4089;SDS011;2059;48.538;12.146;2022-09-23T23:11:53;16.97;;;12.33;;
4089;SDS011;2059;48.538;12.146;2022-09-23T23:16:55;12.13;;;10.70;;
4089;SDS011;2059;48.538;12.146;2022-09-23T23:21:58;12.90;;;9.87;;
4089;SDS011;2059;48.538;12.146;2022-09-23T23:27:01;10.67;;;9.63;;
4089;SDS011;2059;48.538;12.146;2022-09-23T23:32:03;12.40;;;10.83;;
4089;SDS011;2059;48.538;12.146;2022-09-23T23:37:06;11.67;;;10.33;;
4089;SDS011;2059;48.538;12.146;2022-09-23T23:42:09;12.27;;;10.90;;
4089;SDS011;2059;48.538;12.146;2022-09-23T23:47:11;14.00;;;11.83;;
4089;SDS011;2059;48.538;12.146;2022-09-23T23:52:14;12.07;;;10.77;;
4089;SDS011;2059;48.538;12.146;2022-09-23T23:57:17;40.20;;;24.30;;
